Paradise Valley, Nevada Weather observations

Data are for 10 minute period ending at time listed.
 Day   Time   Solar   Ave.   Ave.  Ave.  Vector  Max.   Baro.   Total    
  of    of     Rad.   Air    Rel.  Wind   Wind   Wind  Press.  Precip.   
Year   Day            Temp.  Hum.  Speed  Dir.   Gust                    
2016   (PST)  Kw/m2    F      %     mph   deg.    mph    mb.     in.     
-------------------------------------------------------------------------
 344   22:00   0.00   46.7    57   14.6   228    19.4   863.7    0.00 
 344   22:10   0.00   46.6    58   12.9   217    16.2   863.9    0.00 
 344   22:20   0.00   46.2    59   12.0   229    15.2   863.8    0.00 
 344   22:30   0.00   45.9    60   11.5   231    15.1   863.7    0.00 
 344   22:40   0.00   45.4    62    9.8   240    13.0   863.7    0.00 
 344   22:50   0.00   44.6    64    9.1   245    12.7   863.7    0.00 
 344   23:00   0.00   45.1    61   10.2   244    13.7   863.6    0.00 
 344   23:10   0.00   45.2    60    9.8   241    12.6   863.5    0.00 
 344   23:20   0.00   44.9    62   11.0   243    14.4   863.4    0.00 
 344   23:30   0.00   44.0    67    9.1   240    12.0   863.4    0.00 
 344   23:40   0.00   43.1    70    8.2   241    10.4   863.3    0.00 
 344   23:50   0.00   42.4    73    6.8   248     9.9   863.1    0.00 
 345    0:00   0.00   43.2    70    8.4   252    10.4   863.2    0.00 
 345    0:10   0.00   43.5    70    8.6   250    10.6   862.9    0.00 
 345    0:20   0.00   42.7    74    8.1   246     9.3   862.7    0.00 
 345    0:30   0.00   42.4    77    8.3   252    11.7   862.6    0.01 
 345    0:40   0.00   42.8    76    8.1   242    10.6   862.5    0.01 
 345    0:50   0.00   42.3    78    7.5   246     9.4   862.6    0.01 
 345    1:00   0.00   42.0    80    7.5   248     9.1   862.6    0.01 
 345    1:10   0.00   41.8    81    7.6   249     9.1   862.5    0.01 
 345    1:20   0.00   41.9    82    6.4   252     8.0   862.6    0.02 
 345    1:30   0.00   41.9    81    7.0   245     9.6   862.7    0.01 
 345    1:40   0.00   41.6    82    6.3   247     7.7   862.8    0.01 
 345    1:50   0.00   41.7    82    6.1   221     8.0   862.8    0.01 
 345    2:00   0.00   41.3    84    5.3   224     7.2   862.8    0.02 
 345    2:10   0.00   40.6    87    4.4   222     5.7   862.7    0.01 
 345    2:20   0.00   40.3    88    3.6   206     5.0   862.6    0.01 
 345    2:30   0.00   39.3    89    3.5   154     4.4   862.5    0.01 
 345    2:40   0.00   39.3    90    4.7   161     6.8   862.4    0.02 
 345    2:50   0.00   39.4    90    4.4   175     5.8   862.2    0.01 
 345    3:00   0.00   39.8    90    5.9   206     8.1   862.1    0.02 
 345    3:10   0.00   40.3    88    6.5   221     9.0   861.9    0.02 
 345    3:20   0.00   40.6    87    8.4   222    10.9   861.8    0.01 
 345    3:30   0.00   40.7    86    8.8   228    10.8   861.6    0.02 
 345    3:40   0.00   40.6    86    8.7   224    10.7   861.5    0.02 
 345    3:50   0.00   40.2    87    9.2   207    12.8   861.5    0.01 
 345    4:00   0.00   40.1    87    9.7   213    13.5   861.3    0.02 
 345    4:10   0.00   39.9    87    9.4   218    12.2   861.2    0.01 
 345    4:20   0.00   39.9    87    9.4   213    11.3   861.1    0.02 
 345    4:30   0.00   40.0    87   10.3   214    14.0   861.0    0.01 
 345    4:40   0.00   40.1    86   11.1   221    15.0   861.1    0.02 
 345    4:50   0.00   40.3    85   12.5   226    15.6   861.0    0.03 
 345    5:00   0.00   40.3    85   12.6   224    16.7   860.9    0.02 
 345    5:10   0.00   40.4    85   13.1   220    17.0   860.7    0.02 
 345    5:20   0.00   40.3    86   13.3   219    17.1   860.7    0.03 
 345    5:30   0.00   40.4    86   14.9   217    19.4   860.7    0.02 
 345    5:40   0.00   40.5    86   15.8   222    21.5   860.7    0.02 
 345    5:50   0.00   40.5    86   16.0   225    19.5   860.7    0.02 
 345    6:00   0.00   40.7    87   16.0   228    19.5   860.6    0.02 
 345    6:10   0.00   40.7    87   15.6   229    19.6   860.6    0.02 
 345    6:20   0.00   40.8    89   15.3   231    20.0   860.6    0.02 
 345    6:30   0.00   41.4    89   16.3   227    20.7   860.6    0.02 
 345    6:40   0.00   41.8    90   15.4   224    19.1   860.6    0.03 
 345    6:50   0.00   42.3    90   16.1   225    21.3   860.7    0.02 
 345    7:00   0.00   42.8    89   17.1   225    22.0   860.7    0.02 
 345    7:10   0.00   43.0    89   17.8   229    23.0   860.6    0.02 
 345    7:20   0.00   43.2    90   17.0   229    22.8   860.7    0.02 
 345    7:30   0.00   43.5    90   17.1   230    21.5   860.7    0.02 
 345    7:40   0.01   44.1    89   18.6   230    23.6   860.8    0.01 
 345    7:50   0.01   44.5    88   17.5   232    23.1   860.7    0.00 
 345    8:00   0.02   44.9    88   17.2   232    23.8   860.8    0.01 
 345    8:10   0.02   45.2    88   16.7   230    21.4   860.9    0.00 
 345    8:20   0.02   45.3    88   15.7   230    22.5   861.0    0.01 
 345    8:30   0.02   45.3    88   15.9   229    21.2   860.9    0.02 
 345    8:40   0.03   45.5    89   16.0   231    20.9   860.9    0.01 
 345    8:50   0.04   45.7    88   16.4   233    21.7   861.0    0.01 
 345    9:00   0.04   45.8    88   16.7   233    22.3   860.9    0.02 
 345    9:10   0.06   45.7    89   17.5   231    25.1   860.8    0.02 
 345    9:20   0.06   45.9    89   18.4   230    24.5   860.9    0.03 
 345    9:30   0.08   46.1    88   16.9   236    25.5   860.9    0.03 
 345    9:40   0.07   46.3    88   18.8   238    23.7   860.9    0.01 
 345    9:50   0.07   46.5    87   19.8   235    27.3   860.9    0.01 
 345   10:00   0.06   46.5    88   20.4   230    26.9   861.0    0.02 
 345   10:10   0.06   46.4    88   19.9   230    26.2   861.0    0.02 
 345   10:20   0.06   46.3    88   20.3   227    27.6   861.1    0.02 
 345   10:30   0.05   46.3    88   20.0   228    26.5   861.2    0.02 
 345   10:40   0.05   46.2    89   17.2   232    24.7   861.3    0.02 
 345   10:50   0.05   46.1    89   14.6   235    20.4   861.2    0.02 
 345   11:00   0.05   46.1    89   14.8   236    19.4   861.1    0.02 
 345   11:10   0.05   46.1    89   13.3   242    19.4   861.1    0.03 
 345   11:20   0.04   46.0    89   13.0   241    16.9   861.2    0.02 
 345   11:30   0.04   46.0    90    9.8   240    17.5   861.3    0.03 
 345   11:40   0.03   45.1    86    5.9   328    17.8   861.5    0.03 
 345   11:50   0.03   43.4    81   16.9   308    29.8   861.4    0.03 
 345   12:00   0.04   42.3    81   17.9   312    26.7   861.2    0.04 
 345   12:10   0.07   42.8    78   20.6   303    30.7   861.0    0.02 
 345   12:20   0.07   42.8    78   16.2   316    29.6   860.9    0.00 
 345   12:30   0.05   42.8    78   19.3   316    30.3   860.9    0.01 
 345   12:40   0.04   42.5    78   20.8   305    30.0   860.9    0.01 
 345   12:50   0.04   42.1    79   19.6   306    31.2   861.0    0.01 
 345   13:00   0.04   42.0    79   15.5   302    25.3   861.2    0.01 
 345   13:10   0.04   42.0    79   10.2   296    18.0   861.3    0.00 
 345   13:20   0.04   42.2    77    8.6   298    17.1   861.5    0.01 
 345   13:30   0.03   42.2    76    4.2   316    10.8   861.5    0.00 
 345   13:40   0.02   42.0    76    5.7    22    14.2   861.5    0.00 
 345   13:50   0.02   41.3    81    3.8    81     7.2   861.6    0.00 
 345   14:00   0.02   41.3    80    4.6   106     7.2   861.7    0.00 
 345   14:10   0.02   41.1    82    2.5    90     6.1   861.8    0.00 
 345   14:20   0.02   40.6    83    7.6    56     9.3   861.9    0.01 
 345   14:30   0.02   40.4    84    6.1    77     7.8   861.9    0.01 
 345   14:40   0.02   40.2    85    5.9   109    11.5   862.1    0.01 
 345   14:50   0.02   39.6    91    8.9   133    13.2   862.1    0.01 
 345   15:00   0.02   39.3    91    8.6   129    14.5   862.0    0.01 
 345   15:10   0.01   39.2    88    7.1   180    10.4   862.1    0.01 
 345   15:20   0.01   38.7    89    5.9   169     7.9   862.2    0.02 
 345   15:30   0.01   38.5    89    4.0   168     6.0   862.3    0.01 
 345   15:40   0.01   38.4    90    4.5   178     7.4   862.4    0.02 
 345   15:50   0.01   37.8    91    6.1   183     8.6   862.4    0.02 
 345   16:00   0.00   37.1    92    6.3   180     7.9   862.4    0.02 
 345   16:10   0.00   36.8    92    4.8   166     7.2   862.4    0.02 
 345   16:20   0.00   36.6    92    3.9   207     6.3   862.5    0.01 
 345   16:30   0.00   36.3    92    3.8   239     5.1   862.5    0.02 
 345   16:40   0.00   35.9    92    2.3   292     4.4   862.5    0.02 
 345   16:50   0.00   35.6    93    2.9   178     4.9   862.2    0.01 
 345   17:00   0.00   35.7    94    4.9   161     6.5   862.0    0.00 
 345   17:10   0.00   36.4    94    7.7   155    11.5   862.1    0.00 
 345   17:20   0.00   36.5    94    4.7   203     9.2   862.2    0.00 
 345   17:30   0.00   36.5    93    5.9   212    13.1   862.1    0.00 
 345   17:40   0.00   36.3    92    5.2   180    12.1   862.0    0.00 
 345   17:50   0.00   36.9    94   11.4   135    14.8   861.8    0.00 
 345   18:00   0.00   37.0    93    9.9   142    13.2   862.0    0.00 
 345   18:10   0.00   37.4    91    5.7   181    11.1   862.2    0.00 
 345   18:20   0.00   37.3    91    5.1    73     8.7   862.2    0.00 
 345   18:30   0.00   37.0    90    5.9    32    10.2   862.3    0.00 
 345   18:40   0.00   36.5    91    3.9   204     7.2   862.3    0.00 
 345   18:50   0.00   36.8    92    2.9   212     7.2   862.3    0.00 
 345   19:00   0.00   37.3    89    1.9   166     3.7   862.4    0.00 
 345   19:10   0.00   36.8    89    0.5   208     2.0   862.4    0.00 
 345   19:20   0.00   37.2    89    2.6   116     4.7   862.6    0.00 
 345   19:30   0.00   36.7    89    2.6   153     3.9   862.7    0.00 
 345   19:40   0.00   36.9    90    4.0   128     5.8   862.8    0.00 
 345   19:50   0.00   37.6    87    4.1   134     6.9   862.9    0.00 
 345   20:00   0.00   38.2    84    3.4   196     6.6   862.9    0.00 
 345   20:10   0.00   36.4    86    0.6   262     2.5   862.9    0.00 
 345   20:20   0.00   35.5    88    2.7   236     4.2   862.8    0.00 
 345   20:30   0.00   35.8    89    4.4   190     6.9   862.9    0.00 
 345   20:40   0.00   36.2    87    6.8   211    13.0   862.8    0.00 
 345   20:50   0.00   36.3    87   11.3   231    15.1   862.7    0.00 
 345   21:00   0.00   35.9    88   10.7   238    13.8   862.9    0.00 
 345   21:10   0.00   36.0    87    8.4   283    13.6   863.2    0.00 
 345   21:20   0.00   34.2    90    2.2   335     5.5   863.3    0.00 
 345   21:30   0.00   34.2    90    1.0   176     4.2   863.4    0.00 
 345   21:40   0.00   34.1    90    2.3   127     5.3   863.5    0.00 
 345   21:50   0.00   34.7    91    3.1   101     5.6   863.6    0.00 

Return to Paradise Valley graphs page.


Western Regional Climate Center,wrcc@dri.edu